Terminal Aerodrome Forecast
Issued by NWS Wilmington, OH

Current Version | Previous Version | Text Only | Print | Product List | Glossary Off
Versions: 1 2 3 4 5 6 7 8 9 10 11 12 13 14 15 16

000
FTUS41 KILN 061700
TAFDAY
TAF
KDAY 061720Z 0618/0718 24008KT P6SM FEW040 SCT250
     FM070000 17005KT P6SM SCT250
     FM071300 23013KT P6SM BKN035 OVC250
     FM071700 23014KT P6SM VCTS BKN035CB OVC250=

USA.gov is the U.S. government's official web portal to all federal, state and local government web resources and services.